Data for 07/27/2010

Time Sea-Level Adjusted Pressure Absolute Pressure Temperature Relative Humidity Dew Point   
(mb) (inHg) (mb) (inHg) (C) (F) (%) (C) (F)
00:05 1018 30.06 847 25.01 19.1 66.3 60 11.1 52
00:10 1018 30.06 847 25.01 18.8 65.8 63 11.6 52.9
00:15 1018 30.06 847 25.01 18.2 64.8 67 12 53.7
00:20 1018 30.06 847 25.01 17.9 64.1 67 11.8 53.2
00:25 1018 30.06 847 25.01 17.9 64.2 67 11.7 53.1
00:30 1018 30.06 847 25.01 17.9 64.2 69 12.1 53.9
00:35 1018 30.06 847 25.01 17.7 63.9 68 11.9 53.5
00:40 1018 30.06 847 25.01 17.4 63.4 71 12.1 53.8
00:45 1018 30.06 847 25.01 17.2 63 74 12.6 54.7
00:50 1018 30.06 848 25.04 16.9 62.4 75 12.4 54.4
00:55 1019 30.09 848 25.04 17 62.6 72 11.9 53.3
01:00 1018 30.06 848 25.04 17.1 62.8 72 12.1 53.8
01:05 1018 30.06 848 25.04 17.1 62.8 72 12 53.6
01:10 1018 30.06 848 25.04 17 62.7 71 11.8 53.3
01:15 1018 30.06 848 25.04 17.1 62.7 72 12.1 53.8
01:20 1018 30.06 848 25.04 17 62.5 73 12.1 53.8
01:25 1018 30.06 848 25.04 16.9 62.3 74 12.2 53.9
01:30 1018 30.06 848 25.04 16.8 62.2 74 12.2 54
01:35 1018 30.06 847 25.01 16.8 62.2 74 12.2 54
01:40 1018 30.06 847 25.01 16.8 62.3 74 12.2 54
01:45 1018 30.06 848 25.04 16.7 62.1 77 12.7 54.8
01:50 1018 30.06 848 25.04 16.7 62 75 12.3 54.2
01:55 1018 30.06 847 25.01 16.8 62.2 73 12 53.5
02:00 1018 30.06 847 25.01 17 62.6 71 11.7 53.1
02:05 1018 30.06 847 25.01 17.2 62.9 71 12 53.5
02:10 1018 30.06 847 25.01 17.1 62.7 73 12.2 54
02:15 1018 30.06 848 25.04 17.1 62.7 75 12.7 54.9
02:20 1019 30.09 848 25.04 17.2 62.9 74 12.5 54.6
02:25 1019 30.09 848 25.04 17.2 62.9 72 12.1 53.9
02:30 1019 30.09 848 25.04 17 62.6 73 12.2 54
02:35 1019 30.09 848 25.04 16.8 62.2 75 12.3 54.2
02:40 1018 30.06 847 25.01 16.6 61.9 77 12.5 54.5
02:45 1018 30.06 848 25.04 16.4 61.5 77 12.3 54.2
02:50 1018 30.06 848 25.04 16.4 61.4 77 12.4 54.2
02:55 1018 30.06 848 25.04 16.2 61.1 79 12.6 54.8
03:00 1018 30.06 848 25.04 16 60.8 77 12.1 53.8
03:05 1018 30.06 847 25.01 16.2 61.2 75 11.9 53.4
03:10 1018 30.06 847 25.01 16.6 61.8 72 11.6 53
03:15 1018 30.06 847 25.01 16.8 62.3 72 11.8 53.2
03:20 1018 30.06 848 25.04 16.9 62.3 72 11.7 53.1
03:25 1018 30.06 848 25.04 16.8 62.2 72 11.8 53.2
03:30 1018 30.06 848 25.04 16.7 62 74 12.1 53.8
03:35 1018 30.06 848 25.04 16.4 61.5 76 12.2 53.9
03:40 1018 30.06 848 25.04 16.3 61.3 76 12 53.7
03:45 1018 30.06 848 25.04 16.1 61.1 77 12.2 54
03:50 1018 30.06 848 25.04 16.2 61.1 76 12 53.6
03:55 1018 30.06 848 25.04 16.2 61.2 75 11.9 53.4
04:00 1018 30.06 847 25.01 16.3 61.3 75 11.8 53.2
04:05 1018 30.06 847 25.01 16.3 61.3 77 12.2 53.9
04:10 1018 30.06 847 25.01 16 60.8 77 12 53.7
04:15 1018 30.06 847 25.01 16 60.7 75 11.7 53
04:20 1018 30.06 847 25.01 16.1 61 74 11.5 52.7
04:25 1018 30.06 848 25.04 16.3 61.4 73 11.5 52.6
04:30 1018 30.06 848 25.04 16.4 61.6 72 11.4 52.6
04:35 1018 30.06 848 25.04 16.6 62 70 11.1 52.1
04:40 1018 30.06 848 25.04 16.8 62.2 70 11.3 52.4
04:45 1018 30.06 848 25.04 16.8 62.3 69 11.1 52
04:50 1018 30.06 848 25.04 16.8 62.2 72 11.7 53.1
04:55 1018 30.06 848 25.04 16.4 61.6 73 11.5 52.8
05:00 1018 30.06 848 25.04 16.3 61.4 74 11.7 53
05:05 1018 30.06 848 25.04 16.2 61.1 74 11.6 53
05:10 1018 30.06 848 25.04 16.2 61.2 72 11.2 52.2
05:15 1018 30.06 848 25.04 16.2 61.1 73 11.5 52.6
05:20 1019 30.09 848 25.04 16.1 61 74 11.5 52.8
05:25 1019 30.09 848 25.04 16.1 61 74 11.5 52.8
05:30 1019 30.09 848 25.04 16.1 61 74 11.5 52.7
05:35 1019 30.09 848 25.04 16.3 61.3 72 11.3 52.3
05:40 1019 30.09 848 25.04 16.4 61.5 72 11.3 52.4
05:45 1019 30.09 848 25.04 16.4 61.5 76 12.2 54
05:50 1019 30.09 848 25.04 16.4 61.5 73 11.5 52.7
05:55 1019 30.09 848 25.04 16.1 60.9 75 11.7 53.1
06:00 1019 30.09 848 25.04 15.8 60.4 79 12.2 53.9
06:05 1019 30.09 848 25.04 15.3 59.5 80 11.9 53.4
06:10 1019 30.09 848 25.04 14.9 58.9 79 11.3 52.4
06:15 1019 30.09 848 25.04 15.2 59.3 78 11.3 52.3
06:20 1019 30.09 848 25.04 15.6 60 76 11.3 52.4
06:25 1019 30.09 848 25.04 15.4 59.7 79 11.8 53.3
06:30 1019 30.09 849 25.07 15.1 59.2 77 11.2 52.2
06:35 1019 30.09 849 25.07 15.1 59.3 74 10.6 51.1
06:40 1019 30.09 849 25.07 15.3 59.5 78 11.5 52.7
06:45 1020 30.12 849 25.07 14.5 58 80 11.2 52.1
06:50 1020 30.12 849 25.07 14.3 57.8 79 10.9 51.6
06:55 1020 30.12 849 25.07 14.7 58.4 78 10.9 51.6
07:00 1020 30.12 849 25.07 14.9 58.7 79 11.3 52.4
07:05 1020 30.12 849 25.07 14.9 58.7 80 11.5 52.7
07:10 1020 30.12 849 25.07 14.7 58.4 80 11.2 52.2
07:15 1020 30.12 849 25.07 14.4 58 80 11.1 51.9
07:20 1020 30.12 849 25.07 14.5 58.1 79 11 51.8
07:25 1020 30.12 849 25.07 14.7 58.5 79 11.2 52.2
07:30 1020 30.12 849 25.07 14.9 58.8 78 11.2 52.1
07:35 1020 30.12 849 25.07 15.1 59.2 77 11.2 52.2
07:40 1020 30.12 849 25.07 15.3 59.5 77 11.2 52.2
07:45 1020 30.12 849 25.07 15.4 59.7 76 11.2 52.2
07:50 1020 30.12 849 25.07 15.5 59.9 75 11.2 52.2
07:55 1020 30.12 849 25.07 15.7 60.3 76 11.6 52.8
08:00 1020 30.12 849 25.07 15.9 60.5 75 11.5 52.8
08:05 1020 30.12 849 25.07 15.9 60.6 78 12.2 54
08:10 1020 30.12 849 25.07 16 60.8 76 11.9 53.4
08:15 1020 30.12 849 25.07 16.1 61 76 11.8 53.3
08:20 1020 30.12 849 25.07 16.7 62 70 11.3 52.4
08:25 1020 30.12 849 25.07 17.4 63.4 69 11.8 53.3
08:30 1020 30.12 850 25.1 18.3 65 66 11.9 53.4
08:35 1020 30.12 850 25.1 18.4 65.1 67 12.3 54.2
08:40 1021 30.15 850 25.1 18.5 65.3 66 12 53.7
08:45 1021 30.15 850 25.1 18.3 65 65 11.6 52.9
08:50 1021 30.15 850 25.1 18.5 65.3 63 11.4 52.5
08:55 1021 30.15 850 25.1 19.2 66.6 61 11.5 52.7
09:00 1021 30.15 850 25.1 18.8 65.9 63 11.7 53
09:05 1021 30.15 850 25.1 18.7 65.6 64 11.9 53.3
09:10 1021 30.15 850 25.1 18.8 65.9 64 12 53.6
09:15 1021 30.15 850 25.1 19 66.3 64 12.3 54.1
09:20 1021 30.15 850 25.1 19.4 66.9 64 12.4 54.3
09:25 1021 30.15 850 25.1 19.4 67 64 12.7 54.8
09:30 1021 30.15 850 25.1 19.3 66.7 64 12.3 54.2
09:35 1021 30.15 850 25.1 19.2 66.6 64 12.3 54.1
09:40 1021 30.15 850 25.1 19.5 67.1 62 12.2 54
09:45 1021 30.15 850 25.1 19.7 67.4 62 12.2 54
09:50 1021 30.15 850 25.1 19.7 67.4 63 12.5 54.5
09:55 1021 30.15 850 25.1 19.7 67.4 63 12.6 54.7
10:00 1021 30.15 851 25.13 19.4 66.8 64 12.6 54.6
10:05 1021 30.15 851 25.13 19.2 66.6 65 12.6 54.7
10:10 1021 30.15 851 25.13 19.5 67.1 68 13.6 56.4
10:15 1021 30.15 851 25.13 19.3 66.7 66 12.9 55.3
10:20 1021 30.15 851 25.13 19.4 66.9 65 12.8 55
10:25 1021 30.15 851 25.13 19.7 67.5 65 13 55.5
10:30 1021 30.15 851 25.13 19.7 67.5 63 12.5 54.5
10:35 1021 30.15 851 25.13 21 69.7 57 12.2 53.9
10:40 1022 30.18 851 25.13 21.4 70.5 56 12.5 54.5
10:45 1022 30.18 851 25.13 20.8 69.5 59 12.5 54.6
10:50 1022 30.18 851 25.13 21 69.7 59 12.8 55.1
10:55 1022 30.18 851 25.13 20.6 69 61 13 55.4
11:00 1022 30.18 851 25.13 20 68.1 61 12.4 54.4
11:05 1022 30.18 851 25.13 20.5 69 59 12.3 54.1
11:10 1022 30.18 851 25.13 21.6 70.8 55 12.2 53.9
11:15 1022 30.18 851 25.13 22.3 72.2 53 12.3 54.1
11:20 1021 30.15 851 25.13 22.1 71.8 56 13 55.4
11:25 1021 30.15 851 25.13 22.4 72.2 55 13 55.3
11:30 1021 30.15 851 25.13 22.7 72.9 52 12.7 54.8
11:35 1022 30.18 851 25.13 22.3 72.1 57 13.3 56
11:40 1022 30.18 851 25.13 21.6 70.9 56 12.7 54.8
11:45 1021 30.15 851 25.13 22.2 72 54 12.5 54.5
11:50 1021 30.15 851 25.13 23 73.3 54 13.2 55.7
11:55 1021 30.15 851 25.13 22.7 72.9 54 13.1 55.5
12:00 1021 30.15 851 25.13 22.4 72.3 55 13 55.3
12:05 1021 30.15 851 25.13 22.3 72.1 53 12.4 54.3
12:10 1021 30.15 851 25.13 23.1 73.6 51 12.5 54.5
12:15 1021 30.15 851 25.13 23.1 73.6 52 12.9 55.3
12:20 1021 30.15 851 25.13 23.2 73.7 49 12 53.6
12:25 1021 30.15 851 25.13 23.9 75.1 47 12.1 53.8
12:30 1021 30.15 851 25.13 23.5 74.3 53 13.5 56.3
12:35 1021 30.15 851 25.13 21.9 71.3 56 12.8 55.1
12:40 1021 30.15 851 25.13 22.6 72.6 50 11.9 53.4
12:45 1021 30.15 850 25.1 23.8 74.9 50 12.8 55.1
12:50 1021 30.15 850 25.1 23.5 74.4 50 12.7 54.8
12:55 1021 30.15 851 25.13 23.8 74.8 48 12.3 54.1
13:00 1021 30.15 851 25.13 23.9 74.9 48 12.4 54.4
13:05 1021 30.15 851 25.13 23.4 74.2 50 12.5 54.5
13:10 1021 30.15 851 25.13 23.1 73.6 52 13 55.3
13:15 1021 30.15 851 25.13 22.3 72.1 54 12.7 54.9
13:20 1021 30.15 851 25.13 21.9 71.3 56 12.8 55.1
13:25 1021 30.15 851 25.13 21.6 70.9 56 12.5 54.5
13:30 1021 30.15 851 25.13 21.6 70.9 56 12.6 54.8
13:35 1021 30.15 851 25.13 21.7 71 56 12.6 54.7
13:40 1021 30.15 851 25.13 21.6 70.9 56 12.6 54.7
13:45 1021 30.15 851 25.13 21.7 71 55 12.5 54.4
13:50 1021 30.15 851 25.13 21.8 71.2 56 12.6 54.7
13:55 1021 30.15 850 25.1 22.1 71.9 54 12.4 54.4
14:00 1021 30.15 851 25.13 22.5 72.4 53 12.5 54.6
14:05 1021 30.15 851 25.13 22.2 71.9 53 12.3 54.1
14:10 1021 30.15 851 25.13 22 71.5 54 12.4 54.3
14:15 1021 30.15 851 25.13 21.8 71.2 57 13 55.4
14:20 1021 30.15 851 25.13 21.5 70.7 59 13.3 55.9
14:25 1021 30.15 851 25.13 21.7 71.1 57 12.9 55.2
14:30 1021 30.15 851 25.13 21.6 70.9 58 13.2 55.7
14:35 1021 30.15 851 25.13 21.4 70.4 58 12.8 55.1
14:40 1021 30.15 851 25.13 21.5 70.8 55 12.2 54
14:45 1021 30.15 851 25.13 22.1 71.7 55 12.7 54.8
14:50 1021 30.15 851 25.13 21.9 71.4 54 12.4 54.4
14:55 1021 30.15 850 25.1 22.6 72.6 52 12.3 54.2
15:00 1021 30.15 850 25.1 22.2 71.9 53 12.2 53.9
15:05 1021 30.15 850 25.1 21.8 71.3 53 12 53.6
15:10 1021 30.15 850 25.1 22.3 72.1 51 11.9 53.5
15:15 1021 30.15 850 25.1 22.4 72.2 51 11.7 53.1
15:20 1021 30.15 850 25.1 22.3 72.2 51 12 53.6
15:25 1021 30.15 850 25.1 22.2 72 52 12 53.7
15:30 1021 30.15 850 25.1 21.8 71.3 52 11.8 53.3
15:35 1021 30.15 850 25.1 21.7 71 54 12.2 54
15:40 1021 30.15 850 25.1 21.4 70.6 54 12 53.6
15:45 1021 30.15 850 25.1 21.2 70.2 56 12.3 54.2
15:50 1021 30.15 850 25.1 21 69.9 57 12.4 54.2
15:55 1021 30.15 851 25.13 20.9 69.5 58 12.3 54.1
16:00 1021 30.15 850 25.1 20.6 69.1 59 12.4 54.3
16:05 1021 30.15 850 25.1 20.5 68.9 59 12.4 54.3
16:10 1021 30.15 850 25.1 20.2 68.4 60 12.4 54.3
16:15 1021 30.15 851 25.13 20.1 68.1 61 12.3 54.1
16:20 1022 30.18 851 25.13 20 68 61 12.3 54.1
16:25 1022 30.18 851 25.13 19.9 67.9 65 13.3 56
16:30 1021 30.15 850 25.1 19.7 67.4 69 13.9 57
16:35 1021 30.15 850 25.1 19.6 67.3 70 14.1 57.3
16:40 1021 30.15 851 25.13 19.9 67.8 65 13.1 55.6
16:45 1021 30.15 851 25.13 20.1 68.1 65 13.5 56.3
16:50 1021 30.15 851 25.13 20.5 68.8 63 13.2 55.7
16:55 1021 30.15 851 25.13 20.7 69.2 62 13.2 55.8
17:00 1021 30.15 851 25.13 20.7 69.3 62 13.2 55.8
17:05 1021 30.15 851 25.13 20.6 69.1 61 13 55.5
17:10 1021 30.15 851 25.13 20.7 69.3 60 12.9 55.2
17:15 1021 30.15 851 25.13 20.7 69.3 61 13.1 55.6
17:20 1022 30.18 851 25.13 20.9 69.6 60 13 55.5
17:25 1022 30.18 851 25.13 21.1 69.9 60 13 55.4
17:30 1022 30.18 851 25.13 21.4 70.5 58 12.8 55.1
17:35 1021 30.15 851 25.13 21 69.8 61 13.3 55.9
17:40 1021 30.15 851 25.13 21 69.8 59 12.9 55.2
17:45 1021 30.15 850 25.1 21.2 70.1 58 12.8 55
17:50 1021 30.15 851 25.13 21 69.9 58 12.7 54.9
17:55 1021 30.15 851 25.13 20.9 69.7 59 12.6 54.7
18:00 1021 30.15 851 25.13 20.6 69 60 12.6 54.7
18:05 1021 30.15 850 25.1 20.2 68.4 60 12.4 54.4
18:10 1021 30.15 851 25.13 20.1 68.2 61 12.4 54.4
18:15 1021 30.15 850 25.1 20.2 68.3 61 12.5 54.4
18:20 1021 30.15 850 25.1 20.4 68.7 60 12.4 54.3
18:25 1021 30.15 850 25.1 20.6 69.1 59 12.5 54.5
18:30 1021 30.15 850 25.1 20.6 69.1 59 12.6 54.6
18:35 1021 30.15 850 25.1 20.6 69 59 12.4 54.4
18:40 1021 30.15 850 25.1 20.2 68.4 60 12.3 54.1
18:45 1021 30.15 850 25.1 20.2 68.3 60 12.3 54.2
18:50 1021 30.15 850 25.1 20.1 68.2 60 12.1 53.8
18:55 1021 30.15 850 25.1 20.3 68.5 60 12.2 54
19:00 1021 30.15 850 25.1 20.2 68.3 59 12.1 53.8
19:05 1021 30.15 850 25.1 20.3 68.5 59 12.2 54
19:10 1021 30.15 850 25.1 20.1 68.3 60 12.3 54.2
19:15 1021 30.15 850 25.1 19.8 67.7 62 12.3 54.2
19:20 1021 30.15 850 25.1 19.8 67.6 61 12.2 54
19:25 1021 30.15 850 25.1 19.8 67.6 62 12.3 54.2
19:30 1021 30.15 850 25.1 19.8 67.6 62 12.3 54.2
19:35 1021 30.15 850 25.1 19.8 67.6 62 12.3 54.2
19:40 1021 30.15 850 25.1 19.8 67.6 62 12.4 54.3
19:45 1021 30.15 850 25.1 19.7 67.5 62 12.4 54.3
19:50 1021 30.15 850 25.1 19.5 67.1 63 12.4 54.3
19:55 1021 30.15 850 25.1 19.6 67.2 63 12.4 54.3
20:00 1021 30.15 850 25.1 19.6 67.2 63 12.4 54.3
20:05 1021 30.15 850 25.1 19.5 67.1 63 12.4 54.3
20:10 1021 30.15 850 25.1 19.4 66.9 64 12.4 54.4
20:15 1021 30.15 850 25.1 19.4 66.9 64 12.4 54.4
20:20 1021 30.15 850 25.1 19.3 66.8 64 12.4 54.4
20:25 1021 30.15 850 25.1 19.2 66.6 65 12.5 54.4
20:30 1021 30.15 850 25.1 19.1 66.4 65 12.4 54.3
20:35 1021 30.15 850 25.1 19 66.2 65 12.4 54.3
20:40 1021 30.15 850 25.1 18.8 65.9 65 12.3 54.1
20:45 1021 30.15 850 25.1 18.7 65.7 66 12.2 54
20:50 1021 30.15 851 25.13 18.6 65.5 66 12.3 54.1
20:55 1021 30.15 851 25.13 18.5 65.3 67 12.2 54
21:00 1021 30.15 851 25.13 18.4 65.1 67 12.3 54.2
21:05 1022 30.18 851 25.13 18.2 64.8 68 12.3 54.2
21:10 1021 30.15 851 25.13 18.1 64.6 68 12.3 54.2
21:15 1021 30.15 851 25.13 18 64.5 69 12.3 54.2
21:20 1022 30.18 851 25.13 18 64.4 69 12.3 54.2
21:25 1022 30.18 851 25.13 18 64.4 70 12.4 54.4
21:30 1022 30.18 851 25.13 17.9 64.2 71 12.5 54.5
21:35 1022 30.18 851 25.13 17.6 63.6 77 13.6 56.5
21:40 1022 30.18 851 25.13 16.8 62.3 79 13.1 55.7
21:45 1022 30.18 851 25.13 16.5 61.6 80 13 55.4
21:50 1022 30.18 851 25.13 16.3 61.4 82 13.2 55.8
21:55 1022 30.18 851 25.13 16.2 61.2 80 12.9 55.2
22:00 1022 30.18 851 25.13 16.2 61.2 81 12.9 55.3
22:05 1022 30.18 851 25.13 16.1 61 80 12.7 54.9
22:10 1022 30.18 851 25.13 16.1 60.9 80 12.7 54.8
22:15 1022 30.18 851 25.13 16.1 60.9 80 12.7 54.8
22:20 1022 30.18 852 25.16 16 60.8 81 12.7 54.9
22:25 1023 30.21 852 25.16 15.9 60.6 81 12.7 54.9
22:30 1022 30.18 852 25.16 15.6 60.1 85 13.1 55.6
22:35 1023 30.21 852 25.16 15.3 59.6 85 12.9 55.2
22:40 1023 30.21 852 25.16 15.3 59.6 85 12.9 55.2
22:45 1023 30.21 852 25.16 15.3 59.5 86 13 55.4
22:50 1022 30.18 851 25.13 15.2 59.3 87 13 55.4
22:55 1021 30.15 851 25.13 15.1 59.2 87 13.1 55.5
23:00 1021 30.15 850 25.1 15 58.9 88 13 55.4
23:05 1021 30.15 850 25.1 14.9 58.8 88 13 55.3
23:10 1021 30.15 850 25.1 14.9 58.8 88 12.9 55.3
23:15 1021 30.15 850 25.1 15.1 59.1 88 13 55.5
23:20 1022 30.18 851 25.13 15.2 59.3 86 12.9 55.2
23:25 1022 30.18 851 25.13 15.3 59.6 86 13 55.5
23:30 1022 30.18 852 25.16 15.4 59.8 86 13.1 55.6
23:35 1022 30.18 852 25.16 15.3 59.6 86 13 55.4
23:40 1022 30.18 851 25.13 15.3 59.6 85 12.8 55
23:45 1022 30.18 851 25.13 15.6 60.2 83 12.8 55
23:50 1022 30.18 852 25.16 15.7 60.3 83 12.9 55.2
23:55 1022 30.18 852 25.16 15.6 60 84 12.9 55.2
24:00 1022 30.18 852 25.16 15.5 59.9 84 12.8 55